Nearby METAR Reports

 

KIND - Indianapolis, Indiana, USA
Distance from station: SW 6mi, 9km
Updated: Apr 17 2021 2:54pm
Mostly Cloudy
Mostly Cloudy
 Wind from WNW
Wind: WNW 10 mph , 17 km/h, Gust: 22 mph , 35 km/h
Temperature: 61°F , 16°C
Dew Point: 28°F , -2°C
Humidity: 29%
Barometer: 29.90 inHg , 1012.5 hPa
Clouds: Mostly Cloudy
Visibility: 10 miles , 16 km
Cloud details: Mostly Cloudy 11000 ft
Mostly Cloudy 21000 ft
2021/04/17 18:54 KIND 171854Z 30009G19KT 10SM BKN110 BKN210 16/M02 A2990 RMK AO2 SLP126 T01561017
KEYE - Indianapolis, Indiana, USA
Distance from station: NW 5mi, 8km
Updated: Apr 17 2021 3:53pm
Overcast
Overcast
 Wind from NNW
Wind: NNW 16 mph , 26 km/h, Gust: 21 mph , 33 km/h
Temperature: 61°F , 16°C
Dew Point: 30°F , -1°C
Humidity: 31%
Barometer: 29.89 inHg , 1012.2 hPa
Clouds: Overcast
Visibility: 10 miles , 16 km
Cloud details: Overcast 10000 ft
2021/04/17 19:53 KEYE 171953Z AUTO 33014G18KT 10SM OVC100 16/M01 A2989 RMK AO2 SLP121 T01561011 $
 
KTYQ - Indianapolis Exc, Indiana, USA
Distance from station: N 17mi, 28km
Updated: Apr 17 2021 3:35pm
Overcast
Overcast
 Wind from NW
Wind: NW 10 mph , 17 km/h
Temperature: 55°F , 13°C
Dew Point: 32°F , 0°C
Humidity: 41%
Barometer: 29.91 inHg , 1012.9 hPa
Clouds: Overcast
Visibility: 10 miles , 16 km
Cloud details: Overcast 11000 ft
2021/04/17 19:35 KTYQ 171935Z AUTO 31009KT 10SM OVC110 13/00 A2991 RMK AO2 T01340000
KGEZ - Shelbyville, Indiana, USA
Distance from station: ESE 27mi, 43km
Updated: Apr 17 2021 3:53pm
Few Clouds
Few Clouds
 Wind from varies
Wind: varies 5 mph , 7 km/h
Temperature: 61°F , 16°C
Dew Point: 41°F , 5°C
Humidity: 48%
Barometer: 29.88 inHg , 1011.9 hPa
Clouds: Few Clouds
Visibility: 10 miles , 16 km
Cloud details: Few Clouds 12000 ft
2021/04/17 19:53 KGEZ 171953Z AUTO VRB04KT 10SM FEW120 16/05 A2988 RMK AO2 SLP118 T01560050
 
KAID - Anderson Municip, Indiana, USA
Distance from station: NE 40mi, 64km
Updated: Apr 17 2021 11:59am
NOT Current
Clear
Clear
 Wind from WNW
Wind: WNW 5 mph , 7 km/h
Temperature: 50°F , 10°C
Wind Chill: 48°F , 9°C
Dew Point: 34°F , 1°C
Humidity: 54%
Barometer: 29.92 inHg , 1013.2 hPa
Clouds: Clear
Visibility: 10 miles , 16 km
2021/04/17 15:59 KAID 171559Z 30004KT 10SM CLR 10/01 A2992
KBAK - Columbus/Balkala, Indiana, USA
Distance from station: SSE 40mi, 64km
Updated: Apr 17 2021 3:45pm
Partly Cloudy
Partly Cloudy
 Wind from calm
Wind: Calm
Temperature: 55°F , 13°C
Dew Point: 34°F , 1°C
Humidity: 44%
Barometer: 29.91 inHg , 1012.9 hPa
Clouds: Partly Cloudy
Visibility: 10 miles , 16 km
Cloud details: Partly Cloudy 7500 ft
Partly Cloudy 11000 ft
2021/04/17 19:45 KBAK 171945Z 00000KT 10SM SCT075 SCT110 13/01 A2991
 
KBMG - Bloomington, Indiana, USA
Distance from station: SSW 48mi, 78km
Updated: Apr 17 2021 3:53pm
Light rain, Overcast
Light rain, Overcast
 Wind from WNW
Wind: WNW 5 mph , 7 km/h
Temperature: 55°F , 13°C
Dew Point: 39°F , 4°C
Humidity: 55%
Barometer: 29.90 inHg , 1012.5 hPa
Summary: Light Rain
Clouds: Overcast
Visibility: 10 miles , 16 km
Cloud details: Mostly Cloudy 6000 ft
Overcast 7500 ft
2021/04/17 19:53 KBMG 171953Z 30004KT 10SM -RA BKN060 OVC075 13/04 A2990 RMK AO2 RAB48 SLP126 P0000 T01330044
KOKK - Kokomo, Indiana, USA
Distance from station: N 53mi, 85km
Updated: Apr 17 2021 2:56pm
Clear
Clear
 Wind from NW
Wind: NW 9 mph , 15 km/h
Temperature: 54°F , 12°C
Dew Point: 39°F , 4°C
Humidity: 58%
Barometer: 29.92 inHg , 1013.2 hPa
Clouds: Clear
Visibility: 10 miles , 16 km
2021/04/17 18:56 KOKK 171856Z AUTO 31008KT 280V340 10SM CLR 12/04 A2992 RMK AO2 SLP136 T01170044